Aviation Digital Data Service (ADDS)

Output produced by METARs form (1817 UTC 02 July 2015)
found at http://aviationweather.gov/adds/metars/
 
KILG 021721Z 0218/0318 06005KT P6SM SCT050 OVC100 
     TEMPO 0218/0220 5SM -SHRA BKN050 
     FM030100 15005KT P6SM SCT050 BKN150 
     FM030900 VRB02KT 5SM BR BKN150 
     FM031300 06006KT P6SM SCT150